Burlington (BTV/KBTV)

Map

Destinations

Information

Location
Burlington, VT
Local Time
04:10 / 4:10 am
GMT Time
08:10 / 8:10 am
Gates
3
No FAA reported delays
METAR KBTV 270754Z 35003KT 10SM CLR 11/09 A2985 RMK AO2 SLP108 T01060094
TAF KBTV 270539Z 2706/2806 34004KT P6SM SCT020 TEMPO 2706/2710 BKN015 FM271000 VRB03KT P6SM OVC070 FM280300 00000KT P6SM SCT060